Archival Weather

Chicago O'Hare International

Chicago, Illinois (KORD)

Report from: Sunday, November 19, 2023 6:51 AM CST
Current time: Thursday, July 18, 2024 9:38 PM CDT

Current weather – Weather history – Daily summaries
Weather forecast

Temperature2.2°C (36.0°F)
Wind chill0.7°C (33.2°F)
Dew point-2.2°C (28.0°F)
Winds 3 kts (1.5 m/s, 3.5 mph) North-Northwest (340°)
Visibility10 mi. (16.1 km)
Clouds Sky clear
Altimeter30.03 in.Hg (1017 mB)
Relative humidity73 %
Density altitude-1,614 ft. (-492 m)
Sea-level pressure101.7 kPa (1017 mB, 30.04 in.Hg)
Remarks Automated weather observing station with precipitation discriminator
Flight conditions Visual Meteorological Conditions
Raw dataKORD 191251Z 34003KT 10SM CLR 02/M02 A3003 RMK AO2 SLP173 T00221022
An error has occurred. This application may no longer respond until reloaded. Reload 🗙